Time;durP1;ratioP1;P1;durP2;ratioP2;P2;SDS_P1;SDS_P2;PMS_P1;PMS_P2;Temp;Humidity;BMP_temperature;BMP_pressure;BME280_temperature;BME280_humidity;BME280_pressure;Samples;Min_cycle;Max_cycle;Signal;HPM_P1;HPM_P2
2022/03/31 00:01:37;;;;;;;11.15;5.80;;;;;;;13.44;54.83;98734.69;5032502;28;20025;-38
2022/03/31 00:04:02;;;;;;;13.23;5.80;;;;;;;14.30;52.34;98737.81;5048576;28;20485;-37
2022/03/31 00:06:28;;;;;;;12.80;5.50;;;;;;;14.25;52.28;98728.66;5052060;28;20132;-37
2022/03/31 00:08:53;;;;;;;12.68;5.78;;;;;;;13.78;53.97;98731.06;5052515;28;20041;-37
2022/03/31 00:11:19;;;;;;;11.07;5.70;;;;;;;14.07;53.27;98742.41;5052227;28;20029;-37
2022/03/31 00:13:45;;;;;;;12.95;6.25;;;;;;;14.60;51.95;98742.69;5052294;28;20106;-37
2022/03/31 00:16:11;;;;;;;13.30;6.15;;;;;;;13.95;53.22;98745.19;5051803;28;20456;-38
2022/03/31 00:18:37;;;;;;;16.60;6.68;;;;;;;13.54;54.82;98738.53;5052336;28;20497;-37
2022/03/31 00:21:03;;;;;;;18.08;6.00;;;;;;;13.77;54.16;98724.13;5051983;28;20036;-37
2022/03/31 00:23:29;;;;;;;15.70;5.63;;;;;;;13.77;54.02;98718.78;5052041;28;20029;-37
2022/03/31 00:25:55;;;;;;;15.82;6.03;;;;;;;13.47;55.51;98711.97;5051754;28;20411;-37
2022/03/31 00:28:21;;;;;;;13.75;6.10;;;;;;;13.51;54.99;98709.63;5051725;28;20078;-37
2022/03/31 00:30:47;;;;;;;16.45;5.95;;;;;;;14.15;53.06;98711.72;5051633;28;20025;-38
2022/03/31 00:33:13;;;;;;;14.75;6.30;;;;;;;13.38;54.68;98697.44;5051917;28;20029;-38
2022/03/31 00:35:38;;;;;;;13.07;5.90;;;;;;;13.24;55.80;98719.13;5051454;28;20578;-37
2022/03/31 00:38:04;;;;;;;17.25;6.22;;;;;;;13.78;54.76;98723.06;5051512;28;20063;-37
2022/03/31 00:40:30;;;;;;;17.02;6.18;;;;;;;13.55;55.02;98714.22;5051159;28;20037;-37
2022/03/31 00:42:57;;;;;;;17.40;6.55;;;;;;;13.11;56.77;98722.94;5052093;28;20029;-37
2022/03/31 00:45:46;;;;;;;14.73;6.25;;;;;;;13.38;56.21;98740.19;5052128;28;20456;-37
2022/03/31 00:48:13;;;;;;;12.43;5.97;;;;;;;13.77;54.52;98724.94;5052037;28;20032;-38
2022/03/31 00:50:38;;;;;;;16.60;6.03;;;;;;;13.42;55.24;98722.59;5051994;28;20396;-37
2022/03/31 00:53:04;;;;;;;12.95;6.72;;;;;;;13.01;57.16;98712.13;5052141;28;20037;-37
2022/03/31 00:55:29;;;;;;;15.85;6.28;;;;;;;13.66;54.84;98718.63;5051945;28;20035;-39
2022/03/31 00:57:55;;;;;;;24.88;7.35;;;;;;;13.72;55.06;98710.69;5051927;28;20044;-37
2022/03/31 01:00:22;;;;;;;15.43;6.53;;;;;;;13.33;56.08;98732.91;5052290;28;20465;-37
2022/03/31 01:02:47;;;;;;;14.50;6.00;;;;;;;13.54;55.58;98725.19;5052062;28;20021;-37
2022/03/31 01:05:14;;;;;;;14.93;6.00;;;;;;;13.82;54.69;98726.84;5051692;28;20032;-38
2022/03/31 01:07:40;;;;;;;18.20;6.03;;;;;;;12.97;56.49;98729.69;5051662;28;20484;-37
2022/03/31 01:10:08;;;;;;;16.02;6.20;;;;;;;12.68;58.62;98728.97;5051637;28;20033;-38
2022/03/31 01:12:34;;;;;;;14.32;6.20;;;;;;;13.38;55.82;98729.50;5051885;28;20020;-38
2022/03/31 01:15:19;;;;;;;20.33;6.82;;;;;;;13.05;56.54;98721.25;5051596;28;20472;-38
2022/03/31 01:17:47;;;;;;;15.35;6.55;;;;;;;12.35;58.90;98724.38;5051880;28;20028;-38
2022/03/31 01:20:20;;;;;;;15.93;6.72;;;;;;;12.80;58.06;98712.88;5051277;28;20056;-38
2022/03/31 01:22:46;;;;;;;13.68;6.60;;;;;;;12.90;57.03;98727.16;5051830;28;20120;-38
2022/03/31 01:25:11;;;;;;;16.10;6.30;;;;;;;12.48;58.88;98729.41;5051795;28;20121;-38
2022/03/31 01:27:41;;;;;;;15.02;6.55;;;;;;;12.68;58.54;98748.44;5051815;28;20150;-38
2022/03/31 01:30:18;;;;;;;12.93;6.13;;;;;;;13.45;56.30;98735.47;5051279;28;20025;-37
2022/03/31 01:32:44;;;;;;;14.27;6.75;;;;;;;12.64;58.28;98717.97;5051293;28;20037;-38
2022/03/31 01:35:11;;;;;;;16.02;6.47;;;;;;;11.98;61.33;98716.78;5051313;28;20033;-37
2022/03/31 01:37:37;;;;;;;14.68;6.80;;;;;;;12.58;59.00;98726.09;5051352;28;20032;-37
2022/03/31 01:40:03;;;;;;;14.35;6.45;;;;;;;12.74;58.18;98732.50;5051269;28;20024;-37
2022/03/31 01:42:29;;;;;;;17.48;6.72;;;;;;;12.16;60.28;98721.91;5051344;28;20040;-37
2022/03/31 01:44:55;;;;;;;14.90;6.55;;;;;;;12.27;60.85;98728.25;5051330;28;20028;-37
2022/03/31 01:47:21;;;;;;;13.50;6.47;;;;;;;12.90;57.93;98700.47;5051357;28;20025;-38
2022/03/31 01:49:47;;;;;;;18.95;7.07;;;;;;;12.55;58.61;98708.72;5050991;28;20093;-38
2022/03/31 01:52:12;;;;;;;15.05;6.70;;;;;;;12.32;60.22;98696.34;5049853;28;20025;-37
2022/03/31 01:54:38;;;;;;;13.45;7.03;;;;;;;12.49;59.45;98688.34;5051011;28;20432;-37
2022/03/31 01:57:04;;;;;;;18.02;6.28;;;;;;;12.51;59.12;98691.59;5051235;28;20404;-37
2022/03/31 01:59:37;;;;;;;18.02;7.10;;;;;;;12.03;60.89;98701.69;5049652;28;20230;-37
2022/03/31 02:02:03;;;;;;;19.63;6.72;;;;;;;12.24;60.35;98696.69;5050826;28;20036;-37
2022/03/31 02:04:28;;;;;;;20.08;7.20;;;;;;;12.66;59.29;98694.50;5051203;28;20025;-37
2022/03/31 02:06:54;;;;;;;15.70;6.63;;;;;;;12.29;59.66;98691.47;5050418;28;20558;-37
2022/03/31 02:09:20;;;;;;;16.08;6.85;;;;;;;11.99;61.62;98699.72;5050700;28;20055;-38
2022/03/31 02:11:46;;;;;;;16.00;6.75;;;;;;;12.52;60.48;98704.66;5050801;28;20025;-38
2022/03/31 02:14:13;;;;;;;18.63;6.82;;;;;;;12.48;59.27;98682.19;5050275;28;20401;-38
2022/03/31 02:16:38;;;;;;;14.88;7.30;;;;;;;12.08;60.87;98682.28;5051073;28;20033;-38
2022/03/31 02:19:04;;;;;;;17.85;7.28;;;;;;;12.00;61.91;98680.03;5050888;28;20032;-37
2022/03/31 02:21:29;;;;;;;12.60;6.57;;;;;;;12.37;59.67;98674.25;5051061;28;20048;-37
2022/03/31 02:23:55;;;;;;;16.88;7.03;;;;;;;12.05;60.91;98685.44;5050512;28;20029;-38
2022/03/31 02:26:20;;;;;;;15.68;6.90;;;;;;;11.89;61.60;98690.47;5050762;28;20025;-38
2022/03/31 02:28:46;;;;;;;15.73;6.90;;;;;;;12.55;59.88;98699.91;5051031;28;20506;-37
2022/03/31 02:31:11;;;;;;;14.45;7.25;;;;;;;12.32;60.79;98704.34;5050694;28;20412;-37
2022/03/31 02:33:38;;;;;;;20.05;7.13;;;;;;;12.02;61.22;98696.59;5050748;28;20094;-37
2022/03/31 02:36:05;;;;;;;17.15;7.88;;;;;;;12.00;61.73;98691.47;5050355;28;20034;-37
2022/03/31 02:38:31;;;;;;;15.48;7.38;;;;;;;12.46;59.86;98691.50;5050812;28;20040;-37
2022/03/31 02:40:56;;;;;;;21.70;7.85;;;;;;;12.13;60.99;98707.19;5050681;28;20029;-37
2022/03/31 02:43:22;;;;;;;21.48;7.57;;;;;;;12.00;61.58;98709.34;5050263;28;20481;-38
2022/03/31 02:45:47;;;;;;;17.48;8.35;;;;;;;12.37;60.21;98706.28;5050358;28;20033;-37
2022/03/31 02:48:13;;;;;;;15.95;7.03;;;;;;;12.39;60.03;98686.28;5051006;28;20029;-38
2022/03/31 02:50:38;;;;;;;13.35;7.70;;;;;;;12.25;60.37;98695.66;5050646;28;20027;-37
2022/03/31 02:55:47;;;;;;;16.23;6.80;;;;;;;12.96;58.88;98709.34;5049967;28;20036;-37
2022/03/31 02:58:13;;;;;;;17.58;7.60;;;;;;;12.28;60.93;98719.19;5050715;28;20021;-37
2022/03/31 03:00:38;;;;;;;15.70;7.00;;;;;;;11.50;62.89;98718.72;5050503;28;20029;-36
2022/03/31 03:03:04;;;;;;;15.15;7.05;;;;;;;12.11;61.22;98714.63;5051503;28;20048;-38
2022/03/31 03:05:31;;;;;;;18.42;7.70;;;;;;;12.04;61.03;98681.16;5053800;28;20032;-38
2022/03/31 03:07:57;;;;;;;20.73;7.78;;;;;;;11.55;63.62;98708.94;5054382;28;20029;-37
2022/03/31 03:10:22;;;;;;;19.58;7.90;;;;;;;11.28;64.81;98703.31;5054170;28;20511;-37
2022/03/31 03:12:49;;;;;;;21.13;7.57;;;;;;;12.11;61.79;98687.97;5053749;28;20108;-38
2022/03/31 03:15:16;;;;;;;19.70;8.13;;;;;;;12.08;62.23;98690.28;5053692;28;20028;-38
2022/03/31 03:17:47;;;;;;;18.85;7.85;;;;;;;11.88;62.72;98696.00;5053613;28;20053;-38
2022/03/31 03:20:15;;;;;;;21.75;8.35;;;;;;;11.81;63.07;98698.03;5054330;28;20036;-38
2022/03/31 03:22:48;;;;;;;29.13;8.88;;;;;;;12.47;60.86;98688.59;5053988;28;20087;-38
2022/03/31 03:25:15;;;;;;;18.92;8.25;;;;;;;12.01;61.87;98671.75;5052924;28;20021;-38
2022/03/31 03:27:42;;;;;;;17.75;7.72;;;;;;;11.66;63.75;98674.53;5053702;28;20419;-38
2022/03/31 03:30:09;;;;;;;18.42;7.90;;;;;;;12.04;63.06;98681.16;5053139;28;20366;-38
2022/03/31 03:32:36;;;;;;;17.10;8.15;;;;;;;12.51;60.31;98678.25;5053609;28;20345;-38
2022/03/31 03:35:03;;;;;;;17.50;7.82;;;;;;;11.73;63.02;98677.88;5053935;28;20454;-38
2022/03/31 03:37:29;;;;;;;56.25;32.70;;;;;;;11.46;64.27;98680.25;5053493;28;20036;-39
2022/03/31 03:39:55;;;;;;;85.20;46.03;;;;;;;12.05;63.02;98678.25;5053344;28;20028;-39
2022/03/31 03:42:20;;;;;;;75.30;33.97;;;;;;;12.24;61.11;98656.69;5053422;28;20059;-38
2022/03/31 03:44:46;;;;;;;18.38;8.30;;;;;;;11.58;63.83;98675.72;5052975;28;20037;-37
2022/03/31 03:47:11;;;;;;;21.40;8.38;;;;;;;11.38;65.06;98670.78;5053343;28;20033;-37
2022/03/31 03:49:37;;;;;;;19.85;7.38;;;;;;;12.22;62.61;98672.97;5052841;28;20039;-37
2022/03/31 03:52:02;;;;;;;21.58;8.05;;;;;;;12.08;62.19;98677.75;5053011;28;20510;-37
2022/03/31 03:54:28;;;;;;;17.38;7.95;;;;;;;11.88;62.29;98678.19;5052954;28;20032;-38
2022/03/31 03:56:54;;;;;;;22.58;8.23;;;;;;;11.87;63.46;98703.19;5053056;28;20104;-37
2022/03/31 03:59:19;;;;;;;15.88;7.78;;;;;;;12.45;61.22;98698.69;5052561;28;20027;-39
2022/03/31 04:01:45;;;;;;;20.85;8.23;;;;;;;12.27;62.23;98689.03;5053558;28;20029;-43
2022/03/31 04:04:10;;;;;;;29.65;9.20;;;;;;;12.17;61.72;98696.88;5053467;28;20017;-41
2022/03/31 04:06:36;;;;;;;27.10;9.32;;;;;;;12.35;62.09;98692.38;5053407;28;20041;-39
2022/03/31 04:09:03;;;;;;;24.55;8.57;;;;;;;12.51;60.84;98692.38;5053957;28;20083;-41
2022/03/31 04:11:28;;;;;;;17.73;8.15;;;;;;;11.78;63.27;98682.50;5052654;28;20474;-37
2022/03/31 04:13:54;;;;;;;14.90;7.75;;;;;;;11.46;64.73;98675.75;5051868;28;20024;-38
2022/03/31 04:16:20;;;;;;;25.55;8.25;;;;;;;12.23;62.65;98679.91;5052166;28;20029;-38
2022/03/31 04:18:45;;;;;;;16.83;8.32;;;;;;;12.07;62.60;98670.00;5052665;28;20036;-37
2022/03/31 04:21:11;;;;;;;19.75;8.60;;;;;;;11.99;62.85;98684.53;5052472;28;20032;-37
2022/03/31 04:23:37;;;;;;;15.63;8.43;;;;;;;11.97;62.75;98669.81;5052056;28;20400;-37
2022/03/31 04:26:02;;;;;;;21.38;8.63;;;;;;;12.17;62.11;98666.72;5052722;28;20031;-38
2022/03/31 04:28:28;;;;;;;22.30;8.57;;;;;;;12.09;62.23;98668.72;5052331;28;20025;-36
2022/03/31 04:30:54;;;;;;;23.05;9.20;;;;;;;11.78;63.96;98680.63;5052155;28;20444;-37
2022/03/31 04:33:20;;;;;;;22.27;8.95;;;;;;;12.34;62.54;98672.88;5051827;28;20029;-38
2022/03/31 04:35:46;;;;;;;17.48;8.73;;;;;;;12.36;61.96;98667.31;5052038;28;20029;-38
2022/03/31 04:38:11;;;;;;;24.75;8.32;;;;;;;12.00;62.52;98672.03;5051053;28;20100;-39
2022/03/31 04:40:37;;;;;;;22.55;13.25;;;;;;;11.89;63.27;98673.66;5050705;28;20127;-38
2022/03/31 04:43:02;;;;;;;20.13;8.57;;;;;;;12.61;61.28;98664.25;5050679;28;20031;-38
2022/03/31 04:45:28;;;;;;;24.73;8.77;;;;;;;12.69;60.79;98663.84;5050850;28;20040;-38
2022/03/31 04:47:54;;;;;;;23.65;9.25;;;;;;;12.07;61.83;98652.16;5050793;28;20479;-38
2022/03/31 04:50:19;;;;;;;24.30;9.57;;;;;;;11.71;64.37;98669.31;5050763;28;20313;-38
2022/03/31 04:52:45;;;;;;;31.05;11.27;;;;;;;12.35;62.18;98679.81;5051118;28;20029;-38
2022/03/31 04:55:10;;;;;;;20.02;9.00;;;;;;;12.29;61.65;98688.78;5051443;28;20021;-38
2022/03/31 04:57:36;;;;;;;22.23;9.20;;;;;;;11.85;63.50;98696.50;5051449;28;20052;-37
2022/03/31 05:00:03;;;;;;;24.65;8.85;;;;;;;11.92;64.68;98707.88;5051967;28;20024;-37
2022/03/31 05:02:28;;;;;;;15.77;7.95;;;;;;;12.92;60.33;98721.59;5051486;28;20032;-38
2022/03/31 05:04:53;;;;;;;21.60;8.68;;;;;;;12.76;59.38;98720.53;5051029;28;20114;-38
2022/03/31 05:07:19;;;;;;;39.88;18.25;;;;;;;12.35;61.27;98727.03;5051659;28;20056;-37
2022/03/31 05:09:45;;;;;;;27.58;12.50;;;;;;;12.50;60.71;98717.44;5051621;28;20036;-38
2022/03/31 05:12:12;;;;;;;23.48;8.32;;;;;;;12.66;60.30;98715.84;5051813;28;20028;-38
2022/03/31 05:14:38;;;;;;;18.55;8.02;;;;;;;12.24;61.94;98696.69;5050854;28;20025;-38
2022/03/31 05:17:05;;;;;;;19.75;8.13;;;;;;;12.24;62.58;98702.88;5051437;28;20025;-38
2022/03/31 05:19:30;;;;;;;18.42;8.43;;;;;;;13.14;59.55;98702.97;5051234;28;20044;-38
2022/03/31 05:21:59;;;;;;;18.77;8.32;;;;;;;12.85;59.64;98696.91;5050466;28;20429;-38
2022/03/31 05:24:25;;;;;;;27.00;9.15;;;;;;;12.54;60.63;98712.44;5050837;28;20081;-37
2022/03/31 05:26:52;;;;;;;20.17;8.52;;;;;;;12.89;60.09;98717.56;5050942;28;20025;-38
2022/03/31 05:29:18;;;;;;;19.50;8.02;;;;;;;13.42;58.30;98703.91;5051155;28;20028;-38
2022/03/31 05:31:44;;;;;;;22.80;8.43;;;;;;;12.58;60.20;98710.91;5050944;28;20063;-37
2022/03/31 05:34:10;;;;;;;23.60;7.85;;;;;;;12.50;61.93;98704.09;5050633;28;20053;-37
2022/03/31 05:36:35;;;;;;;20.30;7.93;;;;;;;13.14;59.35;98713.66;5050594;28;20033;-37
2022/03/31 05:39:02;;;;;;;23.27;8.23;;;;;;;12.90;59.78;98708.47;5051257;28;20488;-39
2022/03/31 05:41:28;;;;;;;21.58;8.77;;;;;;;12.37;61.80;98716.94;5050746;28;20084;-38
2022/03/31 05:43:54;;;;;;;20.25;8.65;;;;;;;13.04;60.09;98716.16;5051019;28;20103;-38
2022/03/31 05:46:23;;;;;;;20.23;8.05;;;;;;;13.32;58.67;98709.09;5051117;28;20017;-37
2022/03/31 05:48:49;;;;;;;22.80;8.02;;;;;;;12.81;60.10;98717.97;5049057;28;20052;-37
2022/03/31 05:51:15;;;;;;;21.85;8.00;;;;;;;13.07;59.85;98721.81;5031042;28;20453;-39
2022/03/31 05:53:40;;;;;;;20.30;8.55;;;;;;;13.54;58.42;98734.00;5043176;28;20393;-38
2022/03/31 05:56:07;;;;;;;20.15;8.70;;;;;;;13.25;59.65;98730.63;5050447;28;20036;-38
2022/03/31 05:58:33;;;;;;;23.65;8.25;;;;;;;12.91;60.08;98733.34;5050615;28;20540;-37
2022/03/31 06:00:59;;;;;;;21.90;8.38;;;;;;;13.76;57.62;98741.22;5050760;28;20075;-37
2022/03/31 06:03:25;;;;;;;21.30;8.75;;;;;;;13.30;58.85;98728.84;5050586;28;20032;-38
2022/03/31 06:05:51;;;;;;;20.38;8.18;;;;;;;12.82;59.92;98732.13;5050284;28;20041;-38
2022/03/31 06:08:17;;;;;;;28.73;8.63;;;;;;;12.82;61.26;98734.78;5050260;28;20029;-38
2022/03/31 06:10:43;;;;;;;21.48;8.80;;;;;;;13.25;59.28;98733.28;5049708;28;20451;-38
2022/03/31 06:13:09;;;;;;;27.20;10.18;;;;;;;12.85;60.20;98732.44;5050094;28;20021;-37
2022/03/31 06:15:35;;;;;;;20.63;9.35;;;;;;;12.20;61.77;98725.72;5048943;28;20412;-37
2022/03/31 06:18:01;;;;;;;22.48;9.10;;;;;;;13.11;60.72;98743.50;5047747;28;20032;-38
2022/03/31 06:20:31;;;;;;;30.83;8.73;;;;;;;13.39;58.70;98744.50;5048070;28;20025;-38
2022/03/31 06:22:57;;;;;;;22.58;12.52;;;;;;;13.06;59.96;98748.75;5048241;28;20057;-39
2022/03/31 06:25:22;;;;;;;29.08;14.57;;;;;;;13.05;60.09;98769.31;5048219;28;20021;-38
2022/03/31 06:27:48;;;;;;;35.30;13.70;;;;;;;13.82;58.17;98783.84;5048688;28;20430;-38
2022/03/31 06:30:15;;;;;;;38.55;13.52;;;;;;;13.48;58.33;98775.88;5048999;28;20025;-38
2022/03/31 06:32:41;;;;;;;31.90;13.63;;;;;;;13.00;60.56;98760.44;5050327;28;20024;-38
2022/03/31 06:35:11;;;;;;;30.83;11.80;;;;;;;13.57;58.81;98741.50;5049647;28;20060;-38
2022/03/31 06:37:38;;;;;;;21.52;11.00;;;;;;;13.75;57.57;98743.09;5050996;28;20033;-38
2022/03/31 06:40:04;;;;;;;32.25;10.55;;;;;;;13.08;59.29;98725.31;5053900;28;20028;-39
2022/03/31 06:42:29;;;;;;;28.52;10.40;;;;;;;13.40;59.12;98712.19;5053588;28;20150;-37
2022/03/31 06:44:56;;;;;;;27.48;10.07;;;;;;;13.42;58.36;98699.38;5053619;28;20047;-42
2022/03/31 06:47:21;;;;;;;27.40;10.65;;;;;;;12.79;59.65;98692.53;5053494;28;20456;-37
2022/03/31 06:49:46;;;;;;;27.50;10.60;;;;;;;12.35;62.61;98690.50;5053416;28;20037;-36
2022/03/31 06:52:12;;;;;;;32.65;10.68;;;;;;;13.17;59.60;98704.31;5053487;28;20029;-37
2022/03/31 06:54:37;;;;;;;22.15;10.80;;;;;;;13.62;58.33;98709.50;5053224;28;20447;-38
2022/03/31 06:57:03;;;;;;;22.45;10.73;;;;;;;13.34;58.35;98707.81;5053392;28;20021;-38
2022/03/31 06:59:30;;;;;;;30.08;11.68;;;;;;;13.19;59.83;98711.03;5053526;28;20025;-36
2022/03/31 07:01:56;;;;;;;32.40;13.25;;;;;;;13.77;58.41;98718.78;5053085;28;20119;-37
2022/03/31 07:04:21;;;;;;;28.92;13.82;;;;;;;13.87;57.37;98722.38;5053054;28;20051;-37
2022/03/31 07:06:48;;;;;;;31.73;14.27;;;;;;;13.27;59.50;98734.69;5053225;28;20049;-37
2022/03/31 07:09:13;;;;;;;28.20;14.50;;;;;;;13.51;59.43;98739.03;5053119;28;20025;-37
2022/03/31 07:11:39;;;;;;;35.30;14.00;;;;;;;14.27;56.63;98760.53;5053113;28;20393;-37
2022/03/31 07:14:05;;;;;;;35.22;13.35;;;;;;;13.98;57.29;98763.41;5052860;28;20021;-38
2022/03/31 07:16:31;;;;;;;32.35;16.02;;;;;;;13.76;57.87;98765.28;5053246;28;20128;-38
2022/03/31 07:18:58;;;;;;;30.15;13.32;;;;;;;14.14;57.79;98768.94;5053277;28;20071;-37
2022/03/31 07:21:24;;;;;;;22.00;11.32;;;;;;;14.37;56.63;98759.81;5053268;28;20029;-37
2022/03/31 07:23:53;;;;;;;23.83;9.88;;;;;;;13.98;57.96;98758.06;5052611;28;20039;-38
2022/03/31 07:26:19;;;;;;;28.13;9.52;;;;;;;14.76;63.11;98763.19;5052997;28;20473;-37
2022/03/31 07:28:45;;;;;;;21.92;8.52;;;;;;;15.58;58.35;98755.72;5052754;28;20075;-39
2022/03/31 07:31:12;;;;;;;18.33;9.10;;;;;;;16.46;52.29;98761.44;5052634;28;20300;-37
2022/03/31 07:33:37;;;;;;;27.48;9.95;;;;;;;16.87;49.79;98766.84;5052417;28;20033;-39
2022/03/31 07:36:03;;;;;;;22.23;9.15;;;;;;;17.09;52.50;98771.97;5052454;28;20108;-39
2022/03/31 07:38:29;;;;;;;22.30;8.75;;;;;;;17.53;54.09;98758.72;5052926;28;20092;-38
2022/03/31 07:40:55;;;;;;;23.58;8.45;;;;;;;17.30;52.38;98767.38;5052624;28;20059;-38
2022/03/31 07:43:21;;;;;;;25.17;8.77;;;;;;;17.49;52.23;98764.94;5052282;28;20029;-38
2022/03/31 07:45:47;;;;;;;24.13;10.88;;;;;;;18.06;52.90;98757.50;5052643;28;20083;-37
2022/03/31 07:48:15;;;;;;;25.35;9.43;;;;;;;18.50;47.60;98756.72;5053139;28;20025;-38
2022/03/31 07:50:42;;;;;;;24.20;7.90;;;;;;;17.98;47.42;98754.28;5052895;28;20029;-40
2022/03/31 07:53:09;;;;;;;20.55;8.65;;;;;;;17.84;47.79;98755.13;5052957;28;20135;-38
2022/03/31 07:55:34;;;;;;;19.95;8.45;;;;;;;17.10;50.12;98728.72;5052250;28;20029;-38
2022/03/31 07:58:00;;;;;;;21.13;8.30;;;;;;;17.16;49.95;98735.69;5052889;28;20032;-37
2022/03/31 08:00:25;;;;;;;24.58;8.38;;;;;;;17.10;50.64;98722.53;5052983;28;20075;-37
2022/03/31 08:02:52;;;;;;;24.08;9.05;;;;;;;17.19;50.92;98729.78;5052927;28;20056;-37
2022/03/31 08:05:23;;;;;;;26.25;9.45;;;;;;;16.72;52.46;98706.66;5052643;28;20096;-38
2022/03/31 08:07:50;;;;;;;31.10;9.65;;;;;;;17.14;51.37;98702.09;5052811;28;20217;-39
2022/03/31 08:10:16;;;;;;;23.48;9.13;;;;;;;17.18;52.14;98717.41;5051353;28;20028;-38
2022/03/31 08:12:44;;;;;;;20.20;8.90;;;;;;;16.83;52.75;98710.19;5050713;28;20344;-37
2022/03/31 08:15:10;;;;;;;22.13;9.15;;;;;;;16.91;52.54;98703.47;5051597;28;20051;-37
2022/03/31 08:17:38;;;;;;;22.42;9.38;;;;;;;17.24;51.89;98712.00;5051922;28;20492;-37
2022/03/31 08:20:05;;;;;;;27.60;10.13;;;;;;;17.42;51.48;98721.38;5051791;28;20020;-37
2022/03/31 08:22:31;;;;;;;30.42;10.13;;;;;;;17.82;51.12;98731.22;5051319;28;20500;-38
2022/03/31 08:24:56;;;;;;;28.55;10.23;;;;;;;17.87;50.27;98725.03;5051618;28;20028;-38
2022/03/31 08:27:21;;;;;;;28.83;9.77;;;;;;;18.04;50.12;98720.09;5051575;28;20021;-38
2022/03/31 08:29:47;;;;;;;29.63;9.48;;;;;;;18.41;49.26;98728.75;5051858;28;20017;-38
2022/03/31 08:32:15;;;;;;;22.35;9.40;;;;;;;18.66;48.32;98719.72;5051613;28;20021;-37
2022/03/31 08:34:41;;;;;;;24.95;9.85;;;;;;;18.85;48.20;98723.34;5052310;28;20097;-38
2022/03/31 08:37:06;;;;;;;22.70;9.93;;;;;;;18.63;48.41;98722.94;5051935;28;20025;-38
2022/03/31 08:39:32;;;;;;;26.52;9.35;;;;;;;18.14;49.65;98719.22;5051536;28;20017;-37
2022/03/31 08:41:58;;;;;;;24.73;9.93;;;;;;;18.17;49.63;98716.00;5051586;28;20036;-37
2022/03/31 08:44:23;;;;;;;23.60;9.60;;;;;;;18.03;50.37;98728.44;5051657;28;20047;-38
2022/03/31 08:46:51;;;;;;;23.58;8.95;;;;;;;18.10;50.04;98716.28;5051289;28;20090;-37
2022/03/31 08:49:17;;;;;;;20.27;9.27;;;;;;;18.30;49.32;98712.66;5050962;28;20035;-36
2022/03/31 08:51:44;;;;;;;23.58;9.38;;;;;;;18.84;48.12;98712.84;5051318;28;20131;-37
2022/03/31 08:54:10;;;;;;;25.98;9.77;;;;;;;18.95;48.29;98699.00;5050913;28;20032;-38
2022/03/31 08:56:37;;;;;;;24.25;9.13;;;;;;;18.62;47.93;98700.59;5051575;28;20396;-38
2022/03/31 08:59:02;;;;;;;21.13;8.40;;;;;;;17.74;50.57;98667.19;5051041;28;20025;-38
2022/03/31 09:01:28;;;;;;;24.30;9.00;;;;;;;17.96;50.87;98685.69;5050997;28;20036;-38
2022/03/31 09:03:53;;;;;;;22.90;9.45;;;;;;;18.64;49.19;98703.00;5050899;28;20032;-38
2022/03/31 09:06:28;;;;;;;25.20;9.18;;;;;;;19.52;47.16;98701.09;5051281;28;20523;-37
2022/03/31 09:08:57;;;;;;;24.25;8.98;;;;;;;19.24;47.74;98681.97;5051593;28;20033;-38
2022/03/31 09:11:33;;;;;;;21.88;9.20;;;;;;;19.03;48.00;98659.03;5051477;28;20438;-38
2022/03/31 09:14:01;;;;;;;21.33;9.57;;;;;;;18.80;48.84;98664.09;5050159;28;20126;-38
2022/03/31 09:16:38;;;;;;;24.77;9.48;;;;;;;19.37;48.18;98655.44;5048900;28;20571;-38
2022/03/31 09:19:09;;;;;;;26.38;10.38;;;;;;;19.46;47.77;98657.19;5050403;28;20492;-36
2022/03/31 09:21:48;;;;;;;19.85;9.65;;;;;;;19.54;47.35;98666.56;5050702;28;20393;-37
2022/03/31 09:24:18;;;;;;;25.00;10.25;;;;;;;19.37;48.06;98691.28;5050034;28;20032;-37
2022/03/31 09:26:48;;;;;;;22.83;9.45;;;;;;;19.73;47.72;98699.78;5050523;28;20013;-38
2022/03/31 09:29:17;;;;;;;27.13;9.55;;;;;;;19.71;46.84;98703.84;5050562;28;20472;-38
2022/03/31 09:31:43;;;;;;;25.23;9.57;;;;;;;20.01;46.78;98696.47;5050220;28;20047;-38
2022/03/31 09:34:09;;;;;;;23.17;9.38;;;;;;;19.47;47.85;98696.56;5049901;28;20496;-38
2022/03/31 09:36:36;;;;;;;25.20;9.30;;;;;;;19.08;48.72;98692.13;5050072;28;20021;-37
2022/03/31 09:39:13;;;;;;;23.73;9.50;;;;;;;18.71;49.78;98690.81;5050536;28;20028;-38
2022/03/31 09:41:43;;;;;;;23.63;8.93;;;;;;;19.46;47.80;98689.56;5049806;28;20104;-37
2022/03/31 09:44:12;;;;;;;26.48;9.05;;;;;;;19.97;46.73;98674.66;5050101;28;20021;-38
2022/03/31 09:46:40;;;;;;;30.80;10.30;;;;;;;20.18;46.37;98661.69;5050438;28;20120;-38
2022/03/31 09:49:25;;;;;;;21.52;7.78;;;;;;;19.72;46.84;98655.03;5050185;28;20024;-38
2022/03/31 09:51:54;;;;;;;24.83;9.25;;;;;;;19.78;47.35;98646.84;5050125;28;20024;-38
2022/03/31 09:54:29;;;;;;;22.90;8.30;;;;;;;20.14;46.80;98655.22;5050334;28;20435;-38
2022/03/31 09:56:56;;;;;;;30.40;9.10;;;;;;;20.61;45.76;98658.84;5050306;28;20032;-39
2022/03/31 09:59:33;;;;;;;24.15;9.00;;;;;;;19.98;47.16;98641.16;5050259;28;20500;-39
2022/03/31 10:02:00;;;;;;;24.40;9.27;;;;;;;20.36;46.81;98632.22;5050240;28;20496;-40
2022/03/31 10:04:26;;;;;;;29.27;8.68;;;;;;;20.38;46.50;98627.34;5049961;28;20081;-38
2022/03/31 10:06:52;;;;;;;22.90;8.25;;;;;;;20.22;46.44;98618.66;5050022;28;20127;-37
2022/03/31 10:09:19;;;;;;;20.83;7.75;;;;;;;19.95;47.29;98627.44;5050032;28;20381;-38
2022/03/31 10:11:47;;;;;;;20.88;8.32;;;;;;;20.53;45.92;98607.38;5049664;28;20131;-38
2022/03/31 10:14:25;;;;;;;31.80;8.48;;;;;;;20.69;45.32;98598.72;5052921;28;20029;-38
2022/03/31 10:16:57;;;;;;;27.15;8.15;;;;;;;21.01;44.41;98618.66;5053875;28;20021;-39
2022/03/31 10:19:38;;;;;;;28.05;7.93;;;;;;;21.11;44.67;98611.47;5052822;28;20029;-38
2022/03/31 10:25:07;;;;;;;23.97;7.63;;;;;;;20.80;44.13;98622.88;5053945;28;20032;-38
2022/03/31 10:27:36;;;;;;;26.65;7.65;;;;;;;20.30;44.54;98609.91;5054198;28;20035;-38
2022/03/31 10:30:09;;;;;;;20.10;6.68;;;;;;;19.81;46.06;98617.38;5054652;28;20025;-38
2022/03/31 10:32:34;;;;;;;23.02;7.13;;;;;;;19.70;46.68;98605.09;5054220;28;20036;-37
2022/03/31 10:35:00;;;;;;;19.80;7.38;;;;;;;20.10;45.92;98592.94;5053880;28;20408;-38
2022/03/31 10:37:38;;;;;;;20.80;7.35;;;;;;;20.62;45.55;98606.41;5054089;28;20108;-37
2022/03/31 10:40:07;;;;;;;25.67;8.27;;;;;;;20.49;44.52;98599.06;5054181;28;20414;-38
2022/03/31 10:42:33;;;;;;;19.55;7.25;;;;;;;20.20;45.49;98591.97;5053807;28;20127;-38
2022/03/31 10:45:09;;;;;;;23.85;6.97;;;;;;;21.37;43.19;98601.75;5053213;28;20104;-38
2022/03/31 10:47:36;;;;;;;20.38;6.45;;;;;;;21.16;42.67;98587.84;5053799;28;20065;-38
2022/03/31 10:50:04;;;;;;;24.38;6.72;;;;;;;20.66;42.73;98579.59;5053619;28;20082;-50
2022/03/31 10:52:32;;;;;;;19.90;6.03;;;;;;;20.73;42.36;98566.47;5052050;28;20444;-49
2022/03/31 10:55:14;;;;;;;21.15;6.40;;;;;;;21.09;40.64;98573.91;5052702;28;20021;-50
2022/03/31 10:57:44;;;;;;;22.38;6.07;;;;;;;21.03;40.99;98561.59;5051765;28;20040;-51
2022/03/31 11:00:17;;;;;;;20.08;6.00;;;;;;;20.47;42.36;98566.13;5053078;28;20103;-53
2022/03/31 11:02:45;;;;;;;21.13;6.60;;;;;;;21.19;41.41;98581.81;5053188;28;20099;-52
2022/03/31 11:05:11;;;;;;;21.73;6.30;;;;;;;21.02;41.97;98560.78;5049970;28;20037;-52
2022/03/31 11:07:38;;;;;;;24.42;6.47;;;;;;;20.90;42.43;98579.41;5051309;28;20528;-49
2022/03/31 11:10:07;;;;;;;25.08;6.38;;;;;;;21.47;41.50;98576.41;5052039;28;20021;-50
2022/03/31 11:12:35;;;;;;;26.23;6.07;;;;;;;21.75;40.44;98576.34;5048805;28;20447;-49
2022/03/31 11:15:05;;;;;;;23.75;6.20;;;;;;;21.03;41.36;98565.09;5051358;28;20484;-49
2022/03/31 11:17:31;;;;;;;27.30;6.40;;;;;;;21.27;41.26;98574.91;5051108;28;20408;-50
2022/03/31 11:19:59;;;;;;;25.02;6.30;;;;;;;22.25;39.30;98571.63;5051760;28;20033;-52
2022/03/31 11:22:28;;;;;;;21.42;6.32;;;;;;;21.36;41.08;98559.56;5051526;28;20049;-51
2022/03/31 11:24:55;;;;;;;27.48;6.45;;;;;;;21.05;41.84;98562.09;5048355;28;20032;-52
2022/03/31 11:27:38;;;;;;;28.38;6.55;;;;;;;21.28;41.47;98571.09;5050909;28;20500;-51
2022/03/31 11:30:25;;;;;;;26.88;6.43;;;;;;;21.43;41.90;98568.06;5049591;28;20033;-51